METAR AND TAF INFORMATION
METAR FOR EHLW
ADDS - METARS form results

(2044 UTC 17 February 2019)
Data provider http://aviationweather.gov/metar/data/
 
METAR text: EHLW 172025Z AUTO 18006KT 150V210 9999 OVC300 08/04 Q1017 BLU
Conditions at: EHLW (LEEUWARDEN RNLAF, NL) observed 2025 UTC 17 February 2019
Temperature: 8.0°C (46°F)
Dewpoint: 4.0°C (39°F) [RH = 76%]
Pressure (altimeter): 30.03 inches Hg (1017.0 mb)
Winds: from the S (180 degrees) at 7 MPH (6 knots; 3.1 m/s)
Visibility: 6 or more miles (10+ km)
Ceiling: 30000 feet AGL
Clouds: overcast cloud deck at 30000 feet AGL
Weather: no significant weather observed at this time

METAR text: EHLW 172005Z AUTO 18007KT 140V210 9999 OVC310 08/04 Q1017 BLU
Conditions at: EHLW (LEEUWARDEN RNLAF, NL) observed 2005 UTC 17 February 2019
Temperature: 8.0°C (46°F)
Dewpoint: 4.0°C (39°F) [RH = 76%]
Pressure (altimeter): 30.03 inches Hg (1017.0 mb)
Winds: from the S (180 degrees) at 8 MPH (7 knots; 3.6 m/s)
Visibility: 6 or more miles (10+ km)
Ceiling: 31000 feet AGL
Clouds: overcast cloud deck at 31000 feet AGL
Weather: no significant weather observed at this time

METAR text: EHLW 171955Z AUTO 18007KT 140V210 9999 OVC320 09/04 Q1017 BLU
Conditions at: EHLW (LEEUWARDEN RNLAF, NL) observed 1955 UTC 17 February 2019
Temperature: 9.0°C (48°F)
Dewpoint: 4.0°C (39°F) [RH = 71%]
Pressure (altimeter): 30.03 inches Hg (1017.0 mb)
Winds: from the S (180 degrees) at 8 MPH (7 knots; 3.6 m/s)
Visibility: 6 or more miles (10+ km)
Ceiling: 32000 feet AGL
Clouds: overcast cloud deck at 32000 feet AGL
Weather: no significant weather observed at this time

Forecast for: EHLW (LEEUWARDEN RNLAF, NL)
Text: TAF EHLW 171705Z 1718/1806 17007KT CAVOK
Forecast period: 1800 UTC 17 February 2019 to 0600 UTC 18 February 2019
Forecast type: FROM: standard forecast or significant change
Winds: from the S (170 degrees) at 8 MPH (7 knots; 3.6 m/s)
Visibility: 6 or more miles 10+ km)
Ceiling: unknown
Clouds: missing
Weather: NSW  (no significant weather)
Text: PROB30
Forecast period: 0000 to 0600 UTC 18 February 2019
Forecast type: TEMPORARY: The following changes expected for less than half the time period
Visibility: 2.49 miles (4.01 km)
Ceiling: unknown
Clouds: missing
Weather: BR  (mist)

 AIRPORT MAP

 RUNWAY INFORMATION
Runway 06 Runway length 9701 ft Runway width 164 ft
Runway elevation 4 ft Runway displaced threshold 847 ft Runway heading 55
Runway 24 Runway length 9701 ft Runway width 164 ft
Runway elevation 4 ft Runway displaced threshold 1053 ft Runway heading 235
Runway 09 Runway length 6559 ft Runway width 164 ft
Runway elevation 3 ft Runway displaced threshold 195 ft Runway heading 91
Runway 27 Runway length 6559 ft Runway width 164 ft
Runway elevation 4 ft Runway displaced threshold 0 ft Runway heading 271

 AIRPORT FREQUENCIES
Type APP Name RAPCON NOR Frequency 122.1 MHZ
Type DIR Name ARRIVAL Frequency 122.1 MHZ
Type GND Name GND Frequency 28.155 MHZ
Type TWR Name TWR Frequency 120.7 MHZ

 AIRPORT NEAR NAVIGATION AIDS
Type TACAN Name Leeuwarden Frequency 114700 KHZ